Time;durP1;ratioP1;P1;durP2;ratioP2;P2;SDS_P1;SDS_P2;PMS_P1;PMS_P2;Temp;Humidity;BMP_temperature;BMP_pressure;BME280_temperature;BME280_humidity;BME280_pressure;Samples;Min_cycle;Max_cycle;Signal;HPM_P1;HPM_P2
2022/10/31 00:01:01;;;;;;;0.10;0.10;;;10.30;99.90;;;;;;4700384;30;20045;-76
2022/10/31 00:03:27;;;;;;;0.10;0.10;;;10.40;99.90;;;;;;4701583;30;20104;-74
2022/10/31 00:05:53;;;;;;;0.10;0.10;;;10.20;99.90;;;;;;4701754;30;20088;-76
2022/10/31 00:08:21;;;;;;;0.85;0.85;;;10.10;99.90;;;;;;4702574;30;20053;-77
2022/10/31 00:10:47;;;;;;;0.10;0.10;;;10.10;99.90;;;;;;4699782;30;20042;-76
2022/10/31 00:13:15;;;;;;;0.08;0.08;;;10.10;99.90;;;;;;4706163;30;20105;-77
2022/10/31 00:15:44;;;;;;;0.20;0.20;;;10.10;99.90;;;;;;4702935;30;20034;-76
2022/10/31 00:18:12;;;;;;;0.63;0.63;;;11.20;99.90;;;;;;4702489;30;20045;-75
2022/10/31 00:20:38;;;;;;;0.08;0.08;;;10.10;99.90;;;;;;4703167;30;20034;-76
2022/10/31 00:23:05;;;;;;;0.00;0.00;;;10.10;99.90;;;;;;4702417;30;20041;-76
2022/10/31 00:25:37;;;;;;;0.05;0.05;;;10.10;99.90;;;;;;4701722;30;20124;-76
2022/10/31 00:28:06;;;;;;;0.20;0.20;;;10.10;99.90;;;;;;4701148;30;20045;-76
2022/10/31 00:30:33;;;;;;;0.10;0.10;;;10.00;99.90;;;;;;4701666;30;20029;-76
2022/10/31 00:32:59;;;;;;;0.08;0.08;;;10.10;99.90;;;;;;4700129;30;20037;-76
2022/10/31 00:35:25;;;;;;;0.00;0.00;;;10.00;99.90;;;;;;4698406;30;20030;-76
2022/10/31 00:37:52;;;;;;;0.20;0.20;;;10.00;99.90;;;;;;4699714;30;20658;-75
2022/10/31 00:40:18;;;;;;;9.23;8.60;;;10.00;99.90;;;;;;4701599;30;20045;-76
2022/10/31 00:42:51;;;;;;;3.70;3.55;;;10.00;99.90;;;;;;4699466;30;20025;-75
2022/10/31 00:45:18;;;;;;;0.10;0.10;;;10.00;99.90;;;;;;4699559;30;20050;-76
2022/10/31 00:47:44;;;;;;;0.10;0.10;;;9.90;99.90;;;;;;4701265;30;20041;-75
2022/10/31 00:50:10;;;;;;;0.00;0.00;;;9.80;99.90;;;;;;4701231;30;20038;-76
2022/10/31 00:52:36;;;;;;;0.00;0.00;;;9.90;99.90;;;;;;4704651;30;20049;-76
2022/10/31 00:55:02;;;;;;;0.00;0.00;;;9.90;99.90;;;;;;4704885;30;20033;-75
2022/10/31 00:57:27;;;;;;;0.00;0.00;;;9.90;99.90;;;;;;4704590;30;20421;-75
2022/10/31 00:59:53;;;;;;;0.00;0.00;;;9.80;99.90;;;;;;4706049;30;20034;-76
2022/10/31 01:02:20;;;;;;;0.10;0.10;;;9.80;99.90;;;;;;4706108;30;20026;-76
2022/10/31 01:04:46;;;;;;;0.00;0.00;;;9.70;99.90;;;;;;4704683;30;20034;-74
2022/10/31 01:07:13;;;;;;;0.00;0.00;;;9.70;99.90;;;;;;4701491;30;20030;-76
2022/10/31 01:09:39;;;;;;;1.48;1.45;;;9.70;99.90;;;;;;4697328;30;20056;-76
2022/10/31 01:12:05;;;;;;;0.10;0.10;;;9.70;99.90;;;;;;4697758;30;20029;-76
2022/10/31 01:14:31;;;;;;;0.10;0.10;;;9.70;99.90;;;;;;4697906;30;20033;-76
2022/10/31 01:16:56;;;;;;;0.10;0.10;;;9.70;99.90;;;;;;4694310;30;20420;-75
2022/10/31 01:19:22;;;;;;;0.00;0.00;;;9.70;99.90;;;;;;4695905;30;20029;-77
2022/10/31 01:21:48;;;;;;;0.10;0.10;;;9.60;99.90;;;;;;4695555;30;20025;-77
2022/10/31 01:24:14;;;;;;;0.17;0.17;;;9.60;99.90;;;;;;4705493;30;20113;-76
2022/10/31 01:26:39;;;;;;;0.65;0.65;;;9.60;99.90;;;;;;4702716;30;20153;-76
2022/10/31 01:29:07;;;;;;;0.47;0.47;;;9.60;99.90;;;;;;4698095;30;20038;-75
2022/10/31 01:31:37;;;;;;;0.10;0.10;;;9.50;99.90;;;;;;4699475;30;20026;-76
2022/10/31 01:34:05;;;;;;;0.00;0.00;;;9.50;99.90;;;;;;4700424;30;20057;-75
2022/10/31 01:36:42;;;;;;;0.35;0.35;;;9.50;99.90;;;;;;4698981;30;20032;-75
2022/10/31 01:39:15;;;;;;;0.00;0.00;;;9.40;99.90;;;;;;4699312;30;20289;-76
2022/10/31 01:41:45;;;;;;;0.10;0.10;;;9.40;99.90;;;;;;4699639;30;20522;-75
2022/10/31 01:44:13;;;;;;;0.45;0.45;;;9.40;99.90;;;;;;4699126;30;20532;-76
2022/10/31 01:46:42;;;;;;;0.10;0.10;;;9.30;99.90;;;;;;4699273;30;20414;-75
2022/10/31 01:49:31;;;;;;;0.10;0.10;;;9.30;99.90;;;;;;4683594;30;20046;-75
2022/10/31 01:52:31;;;;;;;0.22;0.22;;;9.30;99.90;;;;;;4699609;30;20062;-76
2022/10/31 01:55:00;;;;;;;0.98;0.95;;;9.30;99.90;;;;;;4679423;30;20038;-76
2022/10/31 01:57:27;;;;;;;4.90;4.70;;;9.30;99.90;;;;;;4677577;30;20054;-77
2022/10/31 01:59:58;;;;;;;0.00;0.00;;;9.30;99.90;;;;;;4677274;30;20106;-75
2022/10/31 02:02:27;;;;;;;0.10;0.10;;;9.30;99.90;;;;;;4665348;30;20159;-76
2022/10/31 02:04:53;;;;;;;0.43;0.43;;;9.20;99.90;;;;;;4678739;30;20570;-76
2022/10/31 02:07:43;;;;;;;0.10;0.10;;;9.20;99.90;;;;;;4677710;30;20042;-75
2022/10/31 02:10:10;;;;;;;0.82;0.80;;;9.20;99.90;;;;;;4678535;30;20036;-76
2022/10/31 02:12:38;;;;;;;0.10;0.10;;;9.20;99.90;;;;;;4678790;30;20692;-76
2022/10/31 02:15:05;;;;;;;0.00;0.00;;;9.10;99.90;;;;;;4679087;30;20423;-76
2022/10/31 02:17:33;;;;;;;0.00;0.00;;;9.10;99.90;;;;;;4678035;30;20109;-75
2022/10/31 02:20:54;;;;;;;0.20;0.20;;;9.10;99.90;;;;;;4678931;30;20048;-76
2022/10/31 02:23:29;;;;;;;0.00;0.00;;;9.10;99.90;;;;;;4644703;30;20043;-75
2022/10/31 02:26:18;;;;;;;0.57;0.57;;;9.10;99.90;;;;;;4644444;30;20050;-75
2022/10/31 02:29:02;;;;;;;0.00;0.00;;;9.10;99.90;;;;;;4644757;30;20070;-75
2022/10/31 02:32:05;;;;;;;0.00;0.00;;;9.10;99.90;;;;;;4659909;30;20042;-75
2022/10/31 02:35:09;;;;;;;0.00;0.00;;;9.10;99.90;;;;;;4660718;30;20085;-76
2022/10/31 02:37:43;;;;;;;;;;;9.00;99.90;;;;;;4627684;31;20614;-75
2022/10/31 02:40:17;;;;;;;0.03;0.03;;;9.10;99.90;;;;;;4625345;30;20543;-76
2022/10/31 02:43:11;;;;;;;0.00;0.00;;;9.10;99.90;;;;;;4627713;31;20333;-76
2022/10/31 02:46:06;;;;;;;0.00;0.00;;;9.00;99.90;;;;;;4626080;31;20111;-75
2022/10/31 02:48:38;;;;;;;0.00;0.00;;;9.00;99.90;;;;;;4629017;31;20091;-76
2022/10/31 02:51:04;;;;;;;0.00;0.00;;;9.00;99.90;;;;;;4613241;31;20087;-75
2022/10/31 02:53:37;;;;;;;0.10;0.10;;;9.00;99.90;;;;;;4627687;31;20059;-76
2022/10/31 02:56:09;;;;;;;0.00;0.00;;;9.00;99.90;;;;;;4626248;31;20130;-76
2022/10/31 02:58:45;;;;;;;0.00;0.00;;;8.90;99.90;;;;;;4626632;31;20035;-76
2022/10/31 03:01:45;;;;;;;0.10;0.10;;;8.90;99.90;;;;;;4653869;30;20322;-76
2022/10/31 03:04:27;;;;;;;0.10;0.10;;;8.90;99.90;;;;;;4642398;30;20099;-75
2022/10/31 03:07:01;;;;;;;0.10;0.10;;;8.90;99.90;;;;;;4644237;30;20118;-75
2022/10/31 03:09:30;;;;;;;0.05;0.05;;;8.90;99.90;;;;;;4652620;30;20551;-75
2022/10/31 03:12:22;;;;;;;0.10;0.10;;;8.90;99.90;;;;;;4653738;30;20614;-76
2022/10/31 03:15:07;;;;;;;0.10;0.10;;;8.90;99.90;;;;;;4666554;30;20113;-76
2022/10/31 03:17:41;;;;;;;0.00;0.00;;;8.90;99.90;;;;;;4673405;30;20090;-75
2022/10/31 03:20:10;;;;;;;0.00;0.00;;;8.90;99.90;;;;;;4673917;30;20041;-76
2022/10/31 03:22:40;;;;;;;0.10;0.10;;;8.90;99.90;;;;;;4673593;30;20084;-77
2022/10/31 03:25:08;;;;;;;0.03;0.03;;;8.80;99.90;;;;;;4675025;30;20109;-76
2022/10/31 03:27:41;;;;;;;0.08;0.08;;;8.80;99.90;;;;;;4661623;30;20058;-75
2022/10/31 03:30:13;;;;;;;0.00;0.00;;;8.70;99.90;;;;;;4676831;30;20069;-76
2022/10/31 03:32:50;;;;;;;0.30;0.30;;;8.80;99.90;;;;;;4678621;30;20034;-75
2022/10/31 03:35:35;;;;;;;0.00;0.00;;;8.70;99.90;;;;;;4676119;30;20273;-76
2022/10/31 03:38:03;;;;;;;0.00;0.00;;;8.70;99.90;;;;;;4672925;30;20578;-75
2022/10/31 03:40:31;;;;;;;0.00;0.00;;;8.70;99.90;;;;;;4662977;30;20052;-76
2022/10/31 03:43:08;;;;;;;0.20;0.20;;;8.70;99.90;;;;;;4692586;30;20425;-76
2022/10/31 03:45:40;;;;;;;0.10;0.10;;;8.60;99.90;;;;;;4692312;30;20267;-76
2022/10/31 03:48:06;;;;;;;0.05;0.05;;;10.60;99.90;;;;;;4691311;30;20034;-75
2022/10/31 03:50:47;;;;;;;0.00;0.00;;;8.60;99.90;;;;;;4692230;30;20042;-75
2022/10/31 03:53:30;;;;;;;0.10;0.10;;;8.60;99.90;;;;;;4693901;30;20331;-76
2022/10/31 03:56:07;;;;;;;0.10;0.10;;;8.60;99.90;;;;;;4700169;30;20560;-75
2022/10/31 03:58:40;;;;;;;0.00;0.00;;;8.50;99.90;;;;;;4700591;30;20231;-75
2022/10/31 04:01:14;;;;;;;0.10;0.10;;;8.50;99.90;;;;;;4699042;30;20032;-75
2022/10/31 04:03:43;;;;;;;0.10;0.10;;;8.60;99.90;;;;;;4700286;30;20258;-76
2022/10/31 04:06:13;;;;;;;0.20;0.20;;;8.20;99.90;;;;;;4700356;30;20034;-76
2022/10/31 04:09:06;;;;;;;0.00;0.00;;;8.60;99.90;;;;;;4696753;30;20056;-76
2022/10/31 04:11:46;;;;;;;0.10;0.10;;;8.50;99.90;;;;;;4687710;30;20064;-76
2022/10/31 04:14:12;;;;;;;0.00;0.00;;;8.40;99.90;;;;;;4702605;30;20124;-76
2022/10/31 04:16:42;;;;;;;0.00;0.00;;;8.50;99.90;;;;;;4700050;30;20068;-76
2022/10/31 04:19:08;;;;;;;4.55;4.15;;;8.50;99.90;;;;;;4693647;30;20030;-75
2022/10/31 04:21:34;;;;;;;0.10;0.10;;;8.50;99.90;;;;;;4700139;30;20091;-75
2022/10/31 04:23:59;;;;;;;0.00;0.00;;;8.40;99.90;;;;;;4702023;30;20127;-75
2022/10/31 04:26:25;;;;;;;0.10;0.10;;;8.30;99.90;;;;;;4701242;30;20044;-77
2022/10/31 04:28:52;;;;;;;0.00;0.00;;;8.30;99.90;;;;;;4702437;30;20033;-75
2022/10/31 04:31:18;;;;;;;0.00;0.00;;;8.40;99.90;;;;;;4700972;30;20196;-75
2022/10/31 04:33:44;;;;;;;0.10;0.10;;;8.30;99.90;;;;;;4701314;30;20040;-75
2022/10/31 04:36:10;;;;;;;0.10;0.10;;;8.40;99.90;;;;;;4699995;30;20072;-76
2022/10/31 04:38:36;;;;;;;0.00;0.00;;;8.40;99.90;;;;;;4700200;30;20474;-75
2022/10/31 04:41:01;;;;;;;0.10;0.10;;;8.40;99.90;;;;;;4700251;30;20033;-75
2022/10/31 04:43:27;;;;;;;0.00;0.00;;;8.30;99.90;;;;;;4700078;30;20049;-75
2022/10/31 04:45:53;;;;;;;0.00;0.00;;;8.30;99.90;;;;;;4701935;30;20109;-75
2022/10/31 04:48:19;;;;;;;0.00;0.00;;;8.20;99.90;;;;;;4700329;30;20252;-75
2022/10/31 04:50:49;;;;;;;11.60;10.45;;;8.20;99.90;;;;;;4702026;30;20036;-75
2022/10/31 04:53:14;;;;;;;0.00;0.00;;;8.20;99.90;;;;;;4700146;30;20264;-76
2022/10/31 04:55:40;;;;;;;0.00;0.00;;;8.10;99.90;;;;;;4700787;30;20112;-75
2022/10/31 04:58:06;;;;;;;0.10;0.10;;;8.20;99.90;;;;;;4699162;30;20049;-76
2022/10/31 05:00:32;;;;;;;0.00;0.00;;;8.10;99.90;;;;;;4700351;30;20047;-76
2022/10/31 05:02:59;;;;;;;0.00;0.00;;;8.10;99.90;;;;;;4701707;30;20085;-75
2022/10/31 05:05:28;;;;;;;0.13;0.13;;;8.20;99.90;;;;;;4700343;30;20099;-76
2022/10/31 05:07:58;;;;;;;0.00;0.00;;;8.20;99.90;;;;;;4701060;30;20030;-74
2022/10/31 05:10:28;;;;;;;0.10;0.10;;;8.20;99.90;;;;;;4692132;30;20037;-76
2022/10/31 05:12:57;;;;;;;0.00;0.00;;;8.10;99.90;;;;;;4693636;30;20270;-76
2022/10/31 05:15:24;;;;;;;0.10;0.10;;;8.20;99.90;;;;;;4693803;30;20107;-76
2022/10/31 05:17:51;;;;;;;0.52;0.52;;;8.20;99.90;;;;;;4692911;30;20042;-76
2022/10/31 05:20:19;;;;;;;3.17;3.03;;;8.20;99.90;;;;;;4694310;30;20084;-76
2022/10/31 05:22:47;;;;;;;0.00;0.00;;;8.20;99.90;;;;;;4698423;30;20037;-76
2022/10/31 05:25:14;;;;;;;0.10;0.10;;;8.20;99.90;;;;;;4704130;30;20534;-76
2022/10/31 05:27:41;;;;;;;3.08;2.88;;;8.30;99.90;;;;;;4704410;30;20076;-75
2022/10/31 05:30:10;;;;;;;6.22;5.95;;;8.10;99.90;;;;;;4699177;30;20037;-76
2022/10/31 05:32:44;;;;;;;0.00;0.00;;;8.20;99.90;;;;;;4698168;30;20073;-76
2022/10/31 05:35:13;;;;;;;0.10;0.10;;;8.30;99.90;;;;;;4698687;30;20037;-75
2022/10/31 05:37:40;;;;;;;0.10;0.10;;;8.20;99.90;;;;;;4699201;30;20033;-75
2022/10/31 05:40:08;;;;;;;1.85;1.75;;;8.30;99.90;;;;;;4697391;30;20053;-75
2022/10/31 05:42:35;;;;;;;0.17;0.17;;;8.30;99.90;;;;;;4699443;30;20030;-75
2022/10/31 05:45:00;;;;;;;0.00;0.00;;;8.30;99.90;;;;;;4696860;30;20037;-76
2022/10/31 05:47:27;;;;;;;0.00;0.00;;;8.30;99.90;;;;;;4697425;30;20036;-75
2022/10/31 05:49:52;;;;;;;0.10;0.10;;;8.30;99.90;;;;;;4697651;30;20033;-75
2022/10/31 05:52:18;;;;;;;0.08;0.08;;;8.30;99.90;;;;;;4700162;30;20088;-76
2022/10/31 05:54:44;;;;;;;0.10;0.10;;;8.30;99.90;;;;;;4692805;30;20037;-76
2022/10/31 05:57:10;;;;;;;0.00;0.00;;;8.30;99.90;;;;;;4695912;30;20107;-75
2022/10/31 05:59:35;;;;;;;0.05;0.05;;;8.30;99.90;;;;;;4694409;30;20037;-75
2022/10/31 06:02:02;;;;;;;0.00;0.00;;;8.30;99.90;;;;;;4695253;30;20070;-75
2022/10/31 06:04:28;;;;;;;0.10;0.10;;;8.40;99.90;;;;;;4692359;30;20556;-76
2022/10/31 06:07:00;;;;;;;0.00;0.00;;;8.40;99.90;;;;;;4698961;30;20293;-75
2022/10/31 06:09:28;;;;;;;0.00;0.00;;;8.40;99.90;;;;;;4697002;30;20506;-76
2022/10/31 06:11:54;;;;;;;0.10;0.10;;;8.50;99.90;;;;;;4700499;30;20098;-80
2022/10/31 06:14:21;;;;;;;0.05;0.05;;;8.50;99.90;;;;;;4695823;30;20061;-75
2022/10/31 06:16:46;;;;;;;0.45;0.45;;;10.30;99.90;;;;;;4693398;30;20037;-75
2022/10/31 06:19:12;;;;;;;0.00;0.00;;;8.60;99.90;;;;;;4697768;30;20021;-77
2022/10/31 06:21:40;;;;;;;0.00;0.00;;;8.60;99.90;;;;;;4702015;30;20022;-77
2022/10/31 06:24:18;;;;;;;0.10;0.10;;;8.70;99.90;;;;;;4696794;30;20386;-75
2022/10/31 06:26:43;;;;;;;;;;;8.70;99.90;;;;;;4687102;30;20033;-76
2022/10/31 06:29:11;;;;;;;0.10;0.10;;;7.90;99.90;;;;;;4684869;30;19918;-76
2022/10/31 06:31:40;;;;;;;0.00;0.00;;;8.90;99.90;;;;;;4685969;30;20091;-76
2022/10/31 06:34:18;;;;;;;0.10;0.10;;;9.20;99.90;;;;;;4686885;30;20431;-76
2022/10/31 06:39:24;;;;;;;0.00;0.00;;;9.00;99.90;;;;;;4704756;30;20061;-76
2022/10/31 06:41:50;;;;;;;0.10;0.10;;;8.30;99.90;;;;;;4705312;30;20043;-77
2022/10/31 06:44:16;;;;;;;0.10;0.10;;;9.30;99.90;;;;;;4703265;30;20033;-76
2022/10/31 06:47:10;;;;;;;0.38;0.38;;;9.70;99.90;;;;;;4717836;30;20041;-77
2022/10/31 06:50:03;;;;;;;;;;;10.90;99.90;;;;;;4705219;30;20299;-76
2022/10/31 06:52:29;;;;;;;0.10;0.10;;;;;;;;;;4707301;30;20184;-77
2022/10/31 06:54:55;;;;;;;0.90;0.90;;;10.50;99.90;;;;;;4722170;30;20067;-74
2022/10/31 06:57:20;;;;;;;1.15;1.15;;;10.40;99.90;;;;;;4732032;30;20017;-75
2022/10/31 06:59:46;;;;;;;6.85;6.32;;;10.30;99.90;;;;;;4736574;30;20021;-77
2022/10/31 07:02:15;;;;;;;1.17;1.17;;;10.40;99.90;;;;;;4749986;30;20025;-77
2022/10/31 07:05:07;;;;;;;0.10;0.10;;;10.40;99.90;;;;;;4735294;30;20041;-76
2022/10/31 07:07:33;;;;;;;0.50;0.50;;;10.40;99.90;;;;;;4736708;30;20048;-76
2022/10/31 07:09:59;;;;;;;0.08;0.08;;;10.50;99.90;;;;;;4734073;30;20032;-77
2022/10/31 07:12:25;;;;;;;3.50;3.25;;;10.40;99.90;;;;;;4729047;30;20052;-77
2022/10/31 07:14:55;;;;;;;0.20;0.20;;;10.50;99.90;;;;;;4729894;30;20718;-76
2022/10/31 07:17:26;;;;;;;1.20;1.20;;;10.50;99.90;;;;;;4724608;30;20057;-78
2022/10/31 07:19:51;;;;;;;0.60;0.60;;;10.60;99.90;;;;;;4727827;30;20033;-77
2022/10/31 07:22:40;;;;;;;0.13;0.13;;;10.70;99.90;;;;;;4722817;30;20040;-79
2022/10/31 07:25:07;;;;;;;0.17;0.17;;;10.70;99.90;;;;;;4700720;30;20036;-77
2022/10/31 07:27:37;;;;;;;0.20;0.20;;;10.60;99.90;;;;;;4711291;30;20033;-77
2022/10/31 07:30:03;;;;;;;2.05;1.95;;;11.10;99.90;;;;;;4713186;30;20029;-77
2022/10/31 07:32:39;;;;;;;2.70;2.60;;;11.30;99.90;;;;;;4709755;30;20059;-77
2022/10/31 07:35:06;;;;;;;0.45;0.45;;;11.40;99.90;;;;;;4713694;30;20025;-78
2022/10/31 07:37:31;;;;;;;1.05;1.05;;;11.40;99.90;;;;;;4709495;30;20663;-76
2022/10/31 07:40:07;;;;;;;5.78;5.47;;;11.50;99.90;;;;;;4722411;30;20056;-76
2022/10/31 07:42:41;;;;;;;2.22;2.13;;;11.60;99.90;;;;;;4723095;30;20132;-76
2022/10/31 07:45:13;;;;;;;0.90;0.90;;;11.60;99.90;;;;;;4718614;30;20032;-76
2022/10/31 07:47:42;;;;;;;0.10;0.10;;;11.60;99.90;;;;;;4708914;30;20017;-76
2022/10/31 07:50:11;;;;;;;2.55;2.45;;;11.60;99.90;;;;;;4710990;30;20049;-77
2022/10/31 07:52:37;;;;;;;1.60;1.52;;;11.60;99.90;;;;;;4711451;30;20025;-76
2022/10/31 07:55:09;;;;;;;0.43;0.43;;;12.80;99.90;;;;;;4712329;30;20025;-76
2022/10/31 07:57:36;;;;;;;0.20;0.20;;;11.90;99.90;;;;;;4708074;30;20037;-76
2022/10/31 08:00:08;;;;;;;1.73;1.65;;;12.00;99.90;;;;;;4706777;30;20109;-77
2022/10/31 08:02:35;;;;;;;1.40;1.40;;;12.10;99.90;;;;;;4706397;30;20048;-76
2022/10/31 08:05:02;;;;;;;1.75;1.65;;;12.10;99.90;;;;;;4709244;30;20028;-77
2022/10/31 08:07:29;;;;;;;0.30;0.30;;;14.70;99.90;;;;;;4707034;30;20103;-77
2022/10/31 08:09:56;;;;;;;0.10;0.10;;;12.40;99.90;;;;;;4708876;30;20029;-76
2022/10/31 08:12:22;;;;;;;0.17;0.17;;;12.60;99.90;;;;;;4708137;30;20033;-81
2022/10/31 08:14:47;;;;;;;0.43;0.43;;;12.70;99.90;;;;;;4704507;30;20034;-79
2022/10/31 08:17:13;;;;;;;0.20;0.20;;;12.80;99.90;;;;;;4706442;30;20076;-80
2022/10/31 08:19:39;;;;;;;0.30;0.30;;;12.90;99.90;;;;;;4707103;30;20060;-77
2022/10/31 08:22:05;;;;;;;0.20;0.20;;;13.10;99.90;;;;;;4708587;30;20056;-78
2022/10/31 08:24:30;;;;;;;46.95;20.58;;;13.10;99.90;;;;;;4711731;30;20041;-78
2022/10/31 08:26:56;;;;;;;1.27;1.17;;;13.30;99.90;;;;;;4715460;30;20032;-76
2022/10/31 08:29:22;;;;;;;5.00;4.68;;;13.50;99.90;;;;;;4714203;30;20025;-77
2022/10/31 08:31:48;;;;;;;0.30;0.30;;;13.60;99.90;;;;;;4718424;30;20037;-76
2022/10/31 08:34:16;;;;;;;7.00;5.18;;;13.60;99.90;;;;;;4720204;30;20025;-79
2022/10/31 08:36:46;;;;;;;0.52;0.52;;;13.80;99.90;;;;;;4718123;30;20098;-85
2022/10/31 08:39:12;;;;;;;0.13;0.13;;;13.90;99.90;;;;;;4717441;30;20049;-76
2022/10/31 08:41:38;;;;;;;1.63;1.52;;;14.00;99.90;;;;;;4719879;30;20032;-77
2022/10/31 08:44:05;;;;;;;8.20;7.78;;;14.10;99.90;;;;;;4721736;30;20040;-79
2022/10/31 08:46:31;;;;;;;9.55;8.80;;;14.30;99.90;;;;;;4722506;30;20025;-78
2022/10/31 08:48:57;;;;;;;1.23;1.15;;;14.40;99.90;;;;;;4724475;30;20053;-76
2022/10/31 08:51:23;;;;;;;4.20;3.83;;;14.60;99.90;;;;;;4717946;30;20621;-80
2022/10/31 08:53:49;;;;;;;0.22;0.22;;;14.70;99.90;;;;;;4715764;30;20025;-77
2022/10/31 08:56:14;;;;;;;2.67;2.47;;;14.70;99.90;;;;;;4716812;30;20090;-76
2022/10/31 08:58:40;;;;;;;2.75;2.65;;;14.70;99.90;;;;;;4713101;30;20045;-76
2022/10/31 09:01:06;;;;;;;8.10;4.55;;;14.80;99.90;;;;;;4704464;30;20265;-76
2022/10/31 09:03:32;;;;;;;6.25;5.60;;;15.00;99.90;;;;;;4702908;30;20033;-82
2022/10/31 09:06:00;;;;;;;0.57;0.57;;;15.10;99.90;;;;;;4704518;30;20025;-76
2022/10/31 09:08:26;;;;;;;0.55;0.55;;;15.30;99.90;;;;;;4704693;30;20077;-77
2022/10/31 09:10:55;;;;;;;0.40;0.40;;;15.40;99.90;;;;;;4715054;30;20036;-89
2022/10/31 09:13:21;;;;;;;9.10;5.00;;;15.50;99.90;;;;;;4709414;30;20509;-80
2022/10/31 09:15:49;;;;;;;0.20;0.20;;;15.60;99.90;;;;;;4705338;30;20029;-82
2022/10/31 09:18:17;;;;;;;0.20;0.20;;;15.70;99.90;;;;;;4714116;30;20052;-84
2022/10/31 09:20:46;;;;;;;7.93;7.40;;;15.80;99.90;;;;;;4704889;30;20041;-91
2022/10/31 09:23:18;;;;;;;1.45;1.35;;;16.00;99.90;;;;;;4706326;30;20029;-78
2022/10/31 09:25:45;;;;;;;1.05;1.05;;;16.10;99.90;;;;;;4706890;30;20018;-80
2022/10/31 09:28:13;;;;;;;0.60;0.60;;;16.30;99.90;;;;;;4707649;30;20051;-81
2022/10/31 09:30:40;;;;;;;0.73;0.73;;;16.40;99.90;;;;;;4708499;30;20590;-86
2022/10/31 09:33:13;;;;;;;1.13;1.05;;;16.50;99.90;;;;;;4706897;30;20040;-82
2022/10/31 09:35:39;;;;;;;0.17;0.17;;;16.70;99.90;;;;;;4705207;30;20033;-77
2022/10/31 09:38:23;;;;;;;1.00;1.00;;;16.80;99.70;;;;;;4705689;30;20330;-89
2022/10/31 09:41:04;;;;;;;0.75;0.68;;;16.90;98.90;;;;;;4706008;30;20032;-84
2022/10/31 09:43:43;;;;;;;0.68;0.68;;;17.10;99.10;;;;;;4705701;30;20037;-88
2022/10/31 09:46:11;;;;;;;0.77;0.77;;;17.10;98.20;;;;;;4705797;30;20017;-93
2022/10/31 09:49:05;;;;;;;0.20;0.20;;;17.30;97.90;;;;;;4704910;30;20040;-86
2022/10/31 09:51:39;;;;;;;0.28;0.28;;;17.30;98.00;;;;;;4705774;30;20049;-94
2022/10/31 09:54:24;;;;;;;0.10;0.10;;;17.50;97.10;;;;;;4694800;30;20583;-82
2022/10/31 09:56:50;;;;;;;0.10;0.10;;;17.60;96.90;;;;;;4708562;30;20033;-79
2022/10/31 09:59:26;;;;;;;1.23;1.23;;;17.70;97.00;;;;;;4707568;30;20146;-80
2022/10/31 10:02:12;;;;;;;1.23;1.15;;;17.90;96.60;;;;;;4709434;30;20714;-78
2022/10/31 10:04:49;;;;;;;1.35;0.95;;;17.90;96.70;;;;;;4707025;30;20048;-92
2022/10/31 10:07:33;;;;;;;0.10;0.10;;;17.90;95.70;;;;;;4706854;30;20438;-81
2022/10/31 10:10:15;;;;;;;0.70;0.70;;;18.10;96.10;;;;;;4705207;30;20064;-82
2022/10/31 10:12:56;;;;;;;1.48;1.40;;;18.30;96.10;;;;;;4688655;30;20036;-89
2022/10/31 10:15:38;;;;;;;0.57;0.55;;;20.30;95.80;;;;;;4703436;30;20048;-82
2022/10/31 10:18:13;;;;;;;2.92;2.47;;;18.40;95.10;;;;;;4704206;30;20041;-79
2022/10/31 10:20:59;;;;;;;3.05;2.85;;;18.40;94.60;;;;;;4704375;30;20030;-84
2022/10/31 10:24:02;;;;;;;0.50;0.50;;;18.70;94.70;;;;;;4688903;30;20025;-83
2022/10/31 10:26:37;;;;;;;1.65;1.55;;;18.90;94.20;;;;;;4704163;30;20080;-83
2022/10/31 10:29:29;;;;;;;0.10;0.10;;;19.10;94.00;;;;;;4703398;30;20041;-88
2022/10/31 10:32:00;;;;;;;5.72;5.32;;;19.40;93.80;;;;;;4703487;30;20651;-83
2022/10/31 10:34:46;;;;;;;0.30;0.30;;;19.60;93.50;;;;;;4702773;30;20758;-90
2022/10/31 10:37:17;;;;;;;1.40;0.75;;;19.80;92.50;;;;;;4707371;30;20566;-83
2022/10/31 10:39:50;;;;;;;1.92;1.75;;;20.00;92.10;;;;;;4715677;30;20033;-86
2022/10/31 10:48:43;;;;;;;2.58;2.47;;;20.10;91.10;;;;;;4720407;30;20032;-80
2022/10/31 10:51:29;;;;;;;0.20;0.20;;;19.10;89.90;;;;;;4627404;31;20233;-77
2022/10/31 10:54:14;;;;;;;3.30;3.03;;;20.50;90.10;;;;;;4608938;31;20094;-94
2022/10/31 10:56:54;;;;;;;1.27;1.17;;;20.40;90.50;;;;;;4621685;31;20470;-79
2022/10/31 10:59:23;;;;;;;11.23;1.83;;;20.70;89.90;;;;;;4620319;31;20035;-94
2022/10/31 11:01:51;;;;;;;4.28;4.07;;;20.70;89.30;;;;;;4616142;30;20118;-83
2022/10/31 11:04:32;;;;;;;2.17;1.98;;;20.80;90.20;;;;;;4616087;31;20034;-80
2022/10/31 11:07:00;;;;;;;0.98;0.98;;;20.80;89.80;;;;;;4601685;31;20878;-78
2022/10/31 11:09:26;;;;;;;1.00;1.00;;;21.00;88.70;;;;;;4615339;31;20082;-78
2022/10/31 11:11:53;;;;;;;1.65;1.55;;;21.20;88.90;;;;;;4615193;31;20159;-79
2022/10/31 11:14:20;;;;;;;1.05;1.00;;;21.40;87.90;;;;;;4615562;31;20126;-84
2022/10/31 11:16:50;;;;;;;7.68;7.20;;;21.50;87.00;;;;;;4615314;31;20113;-78
2022/10/31 11:19:21;;;;;;;0.20;0.20;;;21.70;86.70;;;;;;4615486;30;20074;-83
2022/10/31 11:21:48;;;;;;;3.47;3.13;;;21.90;86.50;;;;;;4615252;31;20074;-79
2022/10/31 11:24:27;;;;;;;4.65;0.90;;;22.20;86.50;;;;;;4614901;31;20042;-78
2022/10/31 11:27:11;;;;;;;1.88;1.73;;;22.50;84.20;;;;;;4624969;30;20039;-77
2022/10/31 11:29:39;;;;;;;1.40;1.40;;;22.50;84.40;;;;;;4714166;30;20029;-86
2022/10/31 11:32:05;;;;;;;1.88;1.00;;;22.80;83.30;;;;;;4717029;30;20112;-82
2022/10/31 11:34:34;;;;;;;2.05;0.90;;;22.90;81.10;;;;;;4717216;30;20142;-85
2022/10/31 11:37:15;;;;;;;2.30;1.15;;;23.10;80.40;;;;;;4717508;30;20053;-84
2022/10/31 11:39:44;;;;;;;0.88;0.63;;;23.30;78.30;;;;;;4711546;30;20082;-85
2022/10/31 11:42:10;;;;;;;0.10;0.10;;;23.30;78.40;;;;;;4768699;25;20077;-83
2022/10/31 11:44:41;;;;;;;5.72;5.38;;;23.60;78.00;;;;;;4703860;30;20051;-81
2022/10/31 11:47:13;;;;;;;8.40;2.92;;;23.70;76.70;;;;;;4719803;30;20086;-80
2022/10/31 11:49:42;;;;;;;4.05;2.22;;;23.80;75.90;;;;;;4691805;30;20021;-79
2022/10/31 11:52:17;;;;;;;2.22;1.25;;;24.10;75.90;;;;;;4715559;30;20547;-82
2022/10/31 11:54:57;;;;;;;0.10;0.10;;;24.30;76.50;;;;;;4704918;30;20472;-80
2022/10/31 11:57:32;;;;;;;3.20;2.95;;;24.40;75.30;;;;;;4714625;30;20234;-79
2022/10/31 12:00:04;;;;;;;0.40;0.40;;;24.30;72.80;;;;;;4714791;30;20065;-82
2022/10/31 12:02:30;;;;;;;1.75;1.65;;;24.70;71.90;;;;;;4700058;30;20238;-83
2022/10/31 12:05:19;;;;;;;1.65;1.55;;;24.40;70.80;;;;;;4728417;30;20684;-78
2022/10/31 12:07:45;;;;;;;0.10;0.10;;;24.40;70.90;;;;;;4722912;30;20081;-81
2022/10/31 12:10:12;;;;;;;0.57;0.57;;;24.60;70.10;;;;;;4711007;30;20124;-80
2022/10/31 12:12:53;;;;;;;2.35;1.27;;;24.40;70.00;;;;;;4714561;30;20175;-80
2022/10/31 12:15:34;;;;;;;1.35;1.00;;;24.70;70.60;;;;;;4716635;30;20666;-76
2022/10/31 12:18:27;;;;;;;1.65;1.30;;;24.80;68.10;;;;;;4711432;30;20040;-75
2022/10/31 12:21:20;;;;;;;1.27;1.15;;;25.00;68.20;;;;;;4708586;30;20127;-81
2022/10/31 12:23:46;;;;;;;3.33;1.17;;;25.30;68.40;;;;;;4707892;30;20036;-84
2022/10/31 12:26:33;;;;;;;4.90;1.02;;;25.50;66.70;;;;;;4706684;30;20665;-83
2022/10/31 12:29:13;;;;;;;0.50;0.50;;;25.70;66.10;;;;;;4706091;30;20029;-84
2022/10/31 12:47:14;;;;;;;0.70;0.70;;;26.30;60.60;;;;;;4693620;30;20451;-80
2022/10/31 12:50:26;;;;;;;0.10;0.10;;;26.50;60.90;;;;;;4651247;30;20043;-80
2022/10/31 12:59:30;;;;;;;0.20;0.20;;;27.00;59.30;;;;;;5458849;24;20065;-82
2022/10/31 13:02:12;;;;;;;1.65;1.55;;;27.10;59.00;;;;;;4690368;30;20060;-77
2022/10/31 13:04:52;;;;;;;0.55;0.55;;;27.10;59.40;;;;;;4705674;30;20029;-82
2022/10/31 13:07:36;;;;;;;0.10;0.10;;;27.10;58.40;;;;;;4705104;30;20040;-76
2022/10/31 13:10:36;;;;;;;6.40;5.35;;;27.00;58.20;;;;;;4689896;30;20041;-93
2022/10/31 13:13:22;;;;;;;0.77;0.77;;;29.60;59.20;;;;;;4690212;30;20037;-78
2022/10/31 13:16:36;;;;;;;1.38;1.38;;;29.00;59.30;;;;;;4706252;30;20025;-77
2022/10/31 13:19:17;;;;;;;1.10;0.70;;;28.70;58.90;;;;;;4710038;30;20041;-89
2022/10/31 13:22:37;;;;;;;0.93;0.63;;;29.00;58.80;;;;;;4705083;30;20044;-81
2022/10/31 13:25:09;;;;;;;0.98;0.82;;;27.60;57.10;;;;;;4678161;30;20096;-78
2022/10/31 13:30:22;;;;;;;0.10;0.10;;;27.60;58.80;;;;;;4723258;24;20068;-90
2022/10/31 13:32:59;;;;;;;3.22;1.48;;;27.80;57.90;;;;;;4722868;30;20017;-89
2022/10/31 13:35:35;;;;;;;0.00;0.00;;;27.90;58.40;;;;;;4725652;30;20119;-78
2022/10/31 13:38:40;;;;;;;0.60;0.60;;;28.20;58.20;;;;;;4722850;30;20064;-86
2022/10/31 13:41:44;;;;;;;0.45;0.35;;;28.20;57.10;;;;;;4721922;30;20052;-81
2022/10/31 13:44:37;;;;;;;0.57;0.57;;;28.80;58.10;;;;;;4689510;30;20049;-78
2022/10/31 13:47:03;;;;;;;1.13;1.05;;;28.30;57.70;;;;;;4704988;30;20067;-81
2022/10/31 13:49:32;;;;;;;0.52;0.52;;;28.90;57.90;;;;;;4689000;30;20095;-91
2022/10/31 13:52:13;;;;;;;0.30;0.30;;;28.80;57.00;;;;;;4689009;30;20060;-77
2022/10/31 13:54:57;;;;;;;0.60;0.60;;;29.00;57.30;;;;;;4704408;30;20029;-84